Time;durP1;ratioP1;P1;durP2;ratioP2;P2;SDS_P1;SDS_P2;PMS_P1;PMS_P2;Temp;Humidity;BMP_temperature;BMP_pressure;BME280_temperature;BME280_humidity;BME280_pressure;Samples;Min_cycle;Max_cycle;Signal;HPM_P1;HPM_P2
2022/12/03 00:02:07;;;;;;;;;;;;;;;19.47;43.98;101798.19;5117385;28;19930;-45
2022/12/03 00:04:33;;;;;;;;;;;;;;;19.46;43.41;101788.25;5121892;28;19927;-44
2022/12/03 00:06:58;;;;;;;;;;;;;;;19.47;43.60;101790.78;5121704;28;19931;-44
2022/12/03 00:09:24;;;;;;;;;;;;;;;19.47;43.85;101792.66;5118975;28;19923;-45
2022/12/03 00:11:50;;;;;;;;;;;;;;;19.46;43.70;101794.59;5121412;28;19927;-45
2022/12/03 00:14:15;;;;;;;;;;;;;;;19.47;43.72;101789.91;5117000;28;19931;-44
2022/12/03 00:16:41;;;;;;;;;;;;;;;19.46;43.69;101794.59;5118675;28;19923;-44
2022/12/03 00:19:06;;;;;;;;;;;;;;;19.45;43.70;101792.94;5117711;28;19927;-45
2022/12/03 00:21:32;;;;;;;;;;;;;;;19.46;43.69;101796.53;5114728;28;19924;-44
2022/12/03 00:23:58;;;;;;;;;;;;;;;19.45;43.75;101787.41;5122121;28;19923;-46
2022/12/03 00:26:24;;;;;;;;;;;;;;;19.46;44.01;101788.25;5124636;28;19987;-45
2022/12/03 00:28:49;;;;;;;;;;;;;;;19.45;43.73;101792.13;5118009;28;19930;-45
2022/12/03 00:31:15;;;;;;;;;;;;;;;19.45;43.71;101787.41;5123864;28;20261;-43
2022/12/03 00:33:40;;;;;;;;;;;;;;;19.45;43.67;101790.19;5120375;28;19930;-44
2022/12/03 00:36:06;;;;;;;;;;;;;;;19.45;43.75;101781.06;5120567;28;19977;-44
2022/12/03 00:38:31;;;;;;;;;;;;;;;19.45;43.64;101787.41;5121980;28;20272;-45
2022/12/03 00:40:57;;;;;;;;;;;;;;;19.45;43.91;101784.66;5122783;28;19924;-44
2022/12/03 00:43:23;;;;;;;;;;;;;;;19.46;44.01;101785.50;5119059;28;20093;-45
2022/12/03 00:45:48;;;;;;;;;;;;;;;19.44;43.63;101771.94;5121461;28;19932;-44
2022/12/03 00:48:14;;;;;;;;;;;;;;;19.45;43.96;101778.31;5120514;28;19932;-45
2022/12/03 00:50:39;;;;;;;;;;;;;;;19.45;43.81;101779.13;5122111;28;19924;-46
2022/12/03 00:53:05;;;;;;;;;;;;;;;19.45;43.81;101772.78;5117577;28;19938;-45
2022/12/03 00:55:30;;;;;;;;;;;;;;;19.45;43.87;101779.13;5123600;27;19934;-44
2022/12/03 00:57:56;;;;;;;;;;;;;;;19.45;43.77;101779.13;5123872;28;19984;-45
2022/12/03 01:00:23;;;;;;;;;;;;;;;19.45;43.76;101778.31;5124198;28;19924;-44
2022/12/03 01:02:50;;;;;;;;;;;;;;;19.44;43.88;101774.72;5125372;28;19981;-45
2022/12/03 01:05:16;;;;;;;;;;;;;;;19.43;43.76;101775.81;5106471;28;20336;-46
2022/12/03 01:07:42;;;;;;;;;;;;;;;19.44;43.77;101780.22;5124670;28;19931;-45
2022/12/03 01:10:07;;;;;;;;;;;;;;;19.44;43.67;101777.47;5117252;28;19924;-45
2022/12/03 01:12:33;;;;;;;;;;;;;;;19.44;43.80;101783.00;5122823;28;19927;-44
2022/12/03 01:14:58;;;;;;;;;;;;;;;19.43;44.01;101778.56;5125799;28;19932;-45
2022/12/03 01:17:24;;;;;;;;;;;;;;;19.44;43.68;101788.53;5124586;28;19976;-44
2022/12/03 01:19:51;;;;;;;;;;;;;;;19.44;43.97;101782.16;5127841;28;19929;-44
2022/12/03 01:22:17;;;;;;;;;;;;;;;19.43;43.89;101786.88;5126538;28;19959;-44
2022/12/03 01:24:42;;;;;;;;;;;;;;;19.44;43.68;101795.97;5100992;28;19967;-44
2022/12/03 01:27:08;;;;;;;;;;;;;;;19.44;43.86;101790.47;5126916;28;19932;-45
2022/12/03 01:29:33;;;;;;;;;;;;;;;19.44;43.87;101793.22;5126968;28;20397;-44
2022/12/03 01:32:30;;;;;;;;;;;;;;;19.44;43.54;101790.47;5129945;28;19931;-44
2022/12/03 01:34:46;;;;;;;;;;;;;;;19.44;43.81;101795.97;5114770;28;19924;-45
2022/12/03 01:37:11;;;;;;;;;;;;;;;19.43;43.81;101786.88;5121875;28;19982;-46
2022/12/03 01:39:37;;;;;;;;;;;;;;;19.43;43.59;101792.38;5118077;28;20286;-44
2022/12/03 01:42:02;;;;;;;;;;;;;;;19.43;43.69;101788.75;5115211;28;20345;-44
2022/12/03 01:44:30;;;;;;;;;;;;;;;19.42;43.79;101787.94;5102977;28;19939;-44
2022/12/03 01:46:56;;;;;;;;;;;;;;;19.44;44.04;101787.69;5123599;28;19967;-43
2022/12/03 01:49:22;;;;;;;;;;;;;;;19.43;43.75;101783.25;5107295;28;19980;-46
2022/12/03 01:51:48;;;;;;;;;;;;;;;19.43;43.92;101786.88;5120420;28;20383;-43
2022/12/03 01:54:16;;;;;;;;;;;;;;;19.42;44.05;101787.94;5124465;28;19934;-45
2022/12/03 01:56:41;;;;;;;;;;;;;;;19.42;43.64;101785.16;5109890;28;19967;-44
2022/12/03 01:59:08;;;;;;;;;;;;;;;19.42;43.71;101778.81;5101949;28;19947;-41
2022/12/03 02:01:33;;;;;;;;;;;;;;;19.42;43.93;101781.59;5123118;28;20016;-42
2022/12/03 02:03:59;;;;;;;;;;;;;;;19.42;43.80;101779.66;5125120;28;20590;-41
2022/12/03 02:06:24;;;;;;;;;;;;;;;19.42;43.80;101789.88;5124942;28;19923;-42
2022/12/03 02:08:57;;;;;;;;;;;;;;;19.41;43.83;101778.00;5122597;27;19931;-44
2022/12/03 02:11:25;;;;;;;;;;;;;;;19.43;44.06;101780.47;5118941;28;20009;-43
2022/12/03 02:13:52;;;;;;;;;;;;;;;19.42;43.97;101774.13;5104268;28;20124;-43
2022/12/03 02:16:17;;;;;;;;;;;;;;;19.42;43.78;101779.66;5122080;28;19928;-44
2022/12/03 02:18:43;;;;;;;;;;;;;;;19.42;44.01;101776.06;5124720;28;19934;-45
2022/12/03 02:21:29;;;;;;;;;;;;;;;19.41;43.76;101778.00;5102575;28;19930;-44
2022/12/03 02:24:01;;;;;;;;;;;;;;;19.42;43.78;101776.06;5108240;28;19966;-45
2022/12/03 02:26:26;;;;;;;;;;;;;;;19.41;43.80;101771.63;5127552;28;19937;-48
2022/12/03 02:28:52;;;;;;;;;;;;;;;19.41;43.63;101772.47;5126339;28;19931;-45
2022/12/03 02:31:17;;;;;;;;;;;;;;;19.41;43.85;101764.19;5123744;28;19924;-45
2022/12/03 02:33:43;;;;;;;;;;;;;;;19.42;43.94;101763.06;5124158;28;20124;-44
2022/12/03 02:36:09;;;;;;;;;;;;;;;19.41;43.82;101757.81;5124291;28;19924;-44
2022/12/03 02:38:34;;;;;;;;;;;;;;;19.41;43.79;101757.81;5125299;27;19950;-44
2022/12/03 02:41:03;;;;;;;;;;;;;;;19.40;44.03;101759.75;5119931;28;19975;-44
2022/12/03 02:43:29;;;;;;;;;;;;;;;19.40;44.02;101754.22;5104114;28;20412;-45
2022/12/03 02:45:55;;;;;;;;;;;;;;;19.41;43.90;101747.59;5120647;28;20371;-46
2022/12/03 02:48:29;;;;;;;;;;;;;;;19.41;43.68;101747.59;5123286;28;19958;-45
2022/12/03 02:50:55;;;;;;;;;;;;;;;19.40;43.82;101751.47;5107306;28;19989;-46
2022/12/03 02:53:22;;;;;;;;;;;;;;;19.40;43.79;101745.94;5123955;28;19997;-45
2022/12/03 02:55:48;;;;;;;;;;;;;;;19.40;43.87;101743.19;5117384;28;19970;-44
2022/12/03 02:58:14;;;;;;;;;;;;;;;19.42;44.01;101748.44;5116200;28;19931;-44
2022/12/03 03:00:39;;;;;;;;;;;;;;;19.39;43.80;101744.28;5115948;28;19942;-44
2022/12/03 03:03:05;;;;;;;;;;;;;;;19.39;43.91;101736.00;5099411;28;20299;-45
2022/12/03 03:05:31;;;;;;;;;;;;;;;19.40;43.67;101737.66;5102685;28;19957;-44
2022/12/03 03:07:57;;;;;;;;;;;;;;;19.40;43.71;101736.81;5107390;28;19938;-44
2022/12/03 03:10:23;;;;;;;;;;;;;;;19.40;43.88;101740.41;5121850;28;19934;-43
2022/12/03 03:12:50;;;;;;;;;;;;;;;19.40;43.79;101742.34;5123919;28;19971;-44
2022/12/03 03:15:15;;;;;;;;;;;;;;;19.40;43.77;101745.13;5118513;28;20478;-45
2022/12/03 03:17:41;;;;;;;;;;;;;;;19.39;43.71;101746.22;5116992;28;19924;-44
2022/12/03 03:20:08;;;;;;;;;;;;;;;19.40;43.89;101745.13;5121058;27;19924;-43
2022/12/03 03:22:34;;;;;;;;;;;;;;;19.39;43.92;101744.28;5103021;28;19955;-45
2022/12/03 03:24:59;;;;;;;;;;;;;;;19.40;43.71;101739.59;5099084;28;20332;-44
2022/12/03 03:27:25;;;;;;;;;;;;;;;19.40;43.74;101743.19;5119174;28;20868;-46
2022/12/03 03:29:51;;;;;;;;;;;;;;;19.40;43.80;101734.06;5123723;28;19931;-44
2022/12/03 03:32:16;;;;;;;;;;;;;;;19.40;43.67;101742.34;5121262;28;20322;-46
2022/12/03 03:34:42;;;;;;;;;;;;;;;19.40;43.80;101745.13;5118056;28;19939;-44
2022/12/03 03:37:08;;;;;;;;;;;;;;;19.39;43.80;101738.75;5118112;28;19923;-44
2022/12/03 03:39:34;;;;;;;;;;;;;;;19.39;43.63;101743.47;5119813;28;21085;-45
2022/12/03 03:41:59;;;;;;;;;;;;;;;19.39;43.72;101740.69;5122642;28;19987;-44
2022/12/03 03:44:25;;;;;;;;;;;;;;;19.39;43.82;101737.94;5118919;28;19927;-43
2022/12/03 03:46:50;;;;;;;;;;;;;;;19.39;43.75;101741.53;5118842;28;19927;-44
2022/12/03 03:49:16;;;;;;;;;;;;;;;19.39;43.82;101733.25;5125827;28;19923;-44
2022/12/03 03:51:41;;;;;;;;;;;;;;;19.40;43.90;101740.41;5118036;28;20114;-47
2022/12/03 03:54:07;;;;;;;;;;;;;;;19.39;43.81;101735.16;5124433;28;19931;-45
2022/12/03 03:56:33;;;;;;;;;;;;;;;19.39;43.97;101732.41;5129588;28;19923;-47
2022/12/03 03:58:58;;;;;;;;;;;;;;;19.40;43.81;101734.06;5120114;28;19924;-44
2022/12/03 04:01:24;;;;;;;;;;;;;;;19.39;43.95;101732.41;5101414;28;19928;-45
2022/12/03 04:03:51;;;;;;;;;;;;;;;19.39;43.79;101732.41;5117318;28;19958;-44
2022/12/03 04:06:16;;;;;;;;;;;;;;;19.40;43.95;101731.31;5120097;28;19935;-44
2022/12/03 04:08:42;;;;;;;;;;;;;;;19.39;43.76;101737.94;5123741;28;19923;-45
2022/12/03 04:13:53;;;;;;;;;;;;;;;19.39;43.68;101729.66;5099901;28;19974;-45
2022/12/03 04:16:19;;;;;;;;;;;;;;;19.38;43.46;101728.78;5122206;28;19927;-44
2022/12/03 04:18:44;;;;;;;;;;;;;;;19.38;43.99;101726.03;5115329;28;19928;-44
2022/12/03 04:23:57;;;;;;;;;;;;;;;19.38;43.71;101719.66;5092656;28;20107;-44
2022/12/03 04:29:08;;;;;;;;;;;;;;;19.37;44.01;101718.84;5105029;28;19963;-44
2022/12/03 04:37:05;;;;;;;;;;;;;;;19.37;43.83;101721.59;5112748;28;19970;-44
2022/12/03 04:39:30;;;;;;;;;;;;;;;19.38;44.07;101714.16;5124148;27;20393;-44
2022/12/03 04:41:56;;;;;;;;;;;;;;;19.38;43.80;101712.22;5124099;28;19927;-45
2022/12/03 04:44:37;;;;;;;;;;;;;;;19.38;44.00;101714.97;5125011;28;19923;-44
2022/12/03 04:47:05;;;;;;;;;;;;;;;19.38;43.79;101708.63;5122769;28;19932;-44
2022/12/03 04:49:30;;;;;;;;;;;;;;;19.38;43.74;101709.44;5120542;28;19932;-44
2022/12/03 04:51:56;;;;;;;;;;;;;;;19.38;44.07;101711.38;5109590;28;19977;-45
2022/12/03 04:54:21;;;;;;;;;;;;;;;19.37;43.63;101713.31;5124278;28;19928;-43
2022/12/03 04:56:47;;;;;;;;;;;;;;;19.37;43.66;101709.72;5126290;28;20308;-44
2022/12/03 04:59:13;;;;;;;;;;;;;;;19.37;43.55;101704.19;5118855;28;19923;-44
2022/12/03 05:01:42;;;;;;;;;;;;;;;19.36;43.75;101703.38;5122831;28;19928;-46
2022/12/03 05:04:07;;;;;;;;;;;;;;;19.36;43.97;101706.13;5108007;28;20161;-46
2022/12/03 05:06:33;;;;;;;;;;;;;;;19.36;43.62;101700.59;5125053;28;19923;-43
2022/12/03 05:08:58;;;;;;;;;;;;;;;19.37;43.90;101707.78;5122651;28;19928;-46
2022/12/03 05:11:24;;;;;;;;;;;;;;;19.37;43.62;101702.25;5127133;28;19961;-47
2022/12/03 05:13:51;;;;;;;;;;;;;;;19.36;43.67;101700.59;5119652;28;19924;-44
2022/12/03 05:16:17;;;;;;;;;;;;;;;19.36;43.66;101706.13;5116687;28;19963;-44
2022/12/03 05:18:42;;;;;;;;;;;;;;;19.37;43.72;101704.19;5127113;28;20018;-44
2022/12/03 05:21:08;;;;;;;;;;;;;;;19.36;44.12;101705.31;5119907;28;19923;-43
2022/12/03 05:23:33;;;;;;;;;;;;;;;19.37;43.79;101701.44;5127270;28;19924;-43
2022/12/03 05:25:59;;;;;;;;;;;;;;;19.37;44.16;101709.72;5120688;28;19924;-44
2022/12/03 05:28:24;;;;;;;;;;;;;;;19.37;43.88;101706.97;5126685;28;19944;-44
2022/12/03 05:30:50;;;;;;;;;;;;;;;19.36;43.68;101708.91;5117639;28;19924;-46
2022/12/03 05:33:16;;;;;;;;;;;;;;;19.37;44.08;101701.44;5126547;28;20329;-43
2022/12/03 05:35:41;;;;;;;;;;;;;;;19.36;43.63;101706.13;5128748;28;19928;-44
2022/12/03 05:38:07;;;;;;;;;;;;;;;19.36;44.01;101703.38;5106341;28;19932;-45
2022/12/03 05:40:32;;;;;;;;;;;;;;;19.37;43.99;101698.69;5128919;28;19930;-44
2022/12/03 05:43:00;;;;;;;;;;;;;;;19.36;43.71;101708.06;5120482;27;20306;-44
2022/12/03 05:45:26;;;;;;;;;;;;;;;19.36;43.78;101699.78;5117277;28;20001;-47
2022/12/03 05:47:53;;;;;;;;;;;;;;;19.36;43.93;101700.59;5100460;28;20017;-44
2022/12/03 05:50:18;;;;;;;;;;;;;;;19.36;43.78;101697.03;5128418;28;19971;-44
2022/12/03 05:52:44;;;;;;;;;;;;;;;19.36;43.82;101702.53;5125058;28;19946;-44
2022/12/03 05:55:10;;;;;;;;;;;;;;;19.36;43.91;101692.31;5102915;28;19976;-44
2022/12/03 05:57:36;;;;;;;;;;;;;;;19.36;43.79;101694.25;5103934;28;20084;-45
2022/12/03 06:00:02;;;;;;;;;;;;;;;19.35;44.11;101690.66;5099372;28;20398;-44
2022/12/03 06:02:28;;;;;;;;;;;;;;;19.35;43.83;101698.13;5115994;28;19962;-44
2022/12/03 06:04:54;;;;;;;;;;;;;;;19.36;43.93;101699.78;5122927;28;19931;-44
2022/12/03 06:07:20;;;;;;;;;;;;;;;19.36;44.01;101705.31;5119458;28;19923;-44
2022/12/03 06:09:45;;;;;;;;;;;;;;;19.36;43.88;101703.38;5120936;28;19930;-45
2022/12/03 06:12:11;;;;;;;;;;;;;;;19.35;43.89;101707.22;5119037;28;19939;-44
2022/12/03 06:14:36;;;;;;;;;;;;;;;19.35;44.10;101710.00;5119704;28;19946;-45
2022/12/03 06:17:03;;;;;;;;;;;;;;;19.35;44.04;101701.72;5120386;28;19923;-45
2022/12/03 06:19:29;;;;;;;;;;;;;;;19.35;43.88;101706.41;5121007;28;19974;-44
2022/12/03 06:21:54;;;;;;;;;;;;;;;19.36;44.08;101708.06;5124665;28;19931;-45
2022/12/03 06:24:20;;;;;;;;;;;;;;;19.35;43.90;101707.22;5122674;28;20229;-45
2022/12/03 06:26:45;;;;;;;;;;;;;;;19.35;43.81;101698.94;5119787;28;20334;-44
2022/12/03 06:29:11;;;;;;;;;;;;;;;19.35;44.16;101700.88;5129268;28;19965;-44
2022/12/03 06:31:36;;;;;;;;;;;;;;;19.34;43.69;101697.25;5124995;28;19923;-44
2022/12/03 06:34:02;;;;;;;;;;;;;;;19.35;43.84;101696.19;5123549;28;19927;-44
2022/12/03 06:36:28;;;;;;;;;;;;;;;19.34;44.17;101694.50;5126338;27;19923;-45
2022/12/03 06:38:53;;;;;;;;;;;;;;;19.34;43.81;101697.25;5125826;28;19959;-44
2022/12/03 06:41:19;;;;;;;;;;;;;;;19.34;44.13;101686.22;5118969;28;19924;-44
2022/12/03 06:43:45;;;;;;;;;;;;;;;19.34;43.76;101690.91;5119923;28;19927;-46
2022/12/03 06:46:10;;;;;;;;;;;;;;;19.34;43.76;101693.66;5104587;28;20371;-43
2022/12/03 06:48:36;;;;;;;;;;;;;;;19.34;43.87;101688.97;5126267;28;19961;-45
2022/12/03 06:51:01;;;;;;;;;;;;;;;19.34;44.08;101690.91;5123244;28;19932;-44
2022/12/03 06:53:27;;;;;;;;;;;;;;;19.35;43.70;101687.06;5118728;27;19935;-43
2022/12/03 06:55:52;;;;;;;;;;;;;;;19.34;43.86;101696.44;5125419;28;20275;-46
2022/12/03 06:58:18;;;;;;;;;;;;;;;19.34;43.96;101697.25;5122383;28;19969;-44
2022/12/03 07:00:43;;;;;;;;;;;;;;;19.34;43.82;101694.50;5119271;28;19938;-44
2022/12/03 07:03:09;;;;;;;;;;;;;;;19.35;43.73;101698.13;5126541;28;20416;-44
2022/12/03 07:05:35;;;;;;;;;;;;;;;19.35;43.73;101695.34;5116523;28;19938;-44
2022/12/03 07:08:00;;;;;;;;;;;;;;;19.34;43.79;101690.91;5101689;28;19924;-44
2022/12/03 07:10:26;;;;;;;;;;;;;;;19.35;43.77;101695.34;5125226;28;19924;-46
2022/12/03 07:12:51;;;;;;;;;;;;;;;19.35;44.07;101692.59;5122857;28;19958;-45
2022/12/03 07:15:17;;;;;;;;;;;;;;;19.34;44.02;101690.91;5117536;28;19935;-46
2022/12/03 07:17:43;;;;;;;;;;;;;;;19.34;43.87;101693.66;5125608;28;19962;-45
2022/12/03 07:20:08;;;;;;;;;;;;;;;19.33;43.75;101690.06;5123967;28;19960;-45
2022/12/03 07:22:34;;;;;;;;;;;;;;;19.34;44.09;101696.44;5120475;28;19923;-45
2022/12/03 07:24:59;;;;;;;;;;;;;;;19.33;43.71;101692.00;5119676;28;19937;-44
2022/12/03 07:27:25;;;;;;;;;;;;;;;19.33;44.08;101695.59;5130011;28;19955;-44
2022/12/03 07:29:50;;;;;;;;;;;;;;;19.32;43.69;101688.41;5115232;28;19924;-44
2022/12/03 07:32:16;;;;;;;;;;;;;;;19.34;43.99;101696.44;5119484;28;20261;-44
2022/12/03 07:34:42;;;;;;;;;;;;;;;19.33;43.79;101689.25;5125949;28;19964;-45
2022/12/03 07:37:07;;;;;;;;;;;;;;;19.33;44.05;101687.31;5120217;28;19932;-44
2022/12/03 07:39:33;;;;;;;;;;;;;;;19.34;43.82;101693.66;5126692;28;19978;-45
2022/12/03 07:41:58;;;;;;;;;;;;;;;19.33;43.78;101692.84;5118871;28;19924;-47
2022/12/03 07:44:24;;;;;;;;;;;;;;;19.33;44.05;101692.84;5119180;28;19924;-44
2022/12/03 07:46:50;;;;;;;;;;;;;;;19.32;43.84;101693.94;5119217;28;19924;-44
2022/12/03 07:49:15;;;;;;;;;;;;;;;19.33;43.89;101692.00;5124787;28;20336;-45
2022/12/03 07:55:11;;;;;;;;;;;;;;;19.33;43.93;101692.84;5120548;28;19961;-44
2022/12/03 07:57:37;;;;;;;;;;;;;;;19.33;44.06;101694.78;5123026;28;20433;-45
2022/12/03 08:00:04;;;;;;;;;;;;;;;19.32;43.86;101693.94;5127802;28;19923;-43
2022/12/03 08:02:29;;;;;;;;;;;;;;;19.33;44.00;101694.78;5100864;28;19937;-45
2022/12/03 08:04:55;;;;;;;;;;;;;;;19.32;43.87;101693.94;5120862;28;19942;-44
2022/12/03 08:07:21;;;;;;;;;;;;;;;19.32;43.96;101696.69;5129445;28;19927;-43
2022/12/03 08:09:46;;;;;;;;;;;;;;;19.33;43.85;101695.59;5124431;28;19941;-44
2022/12/03 08:12:14;;;;;;;;;;;;;;;19.33;43.69;101697.53;5122480;28;19924;-44
2022/12/03 08:14:40;;;;;;;;;;;;;;;19.32;43.69;101695.88;5106710;28;19975;-44
2022/12/03 08:17:09;;;;;;;;;;;;;;;19.32;43.88;101695.88;5125595;28;19969;-45
2022/12/03 08:19:34;;;;;;;;;;;;;;;19.32;43.75;101693.13;5127673;28;20321;-46
2022/12/03 08:22:00;;;;;;;;;;;;;;;19.31;43.75;101689.53;5116274;28;20379;-44
2022/12/03 08:24:28;;;;;;;;;;;;;;;19.32;43.85;101688.41;5123755;28;19928;-44
2022/12/03 08:26:53;;;;;;;;;;;;;;;19.33;43.71;101692.84;5117351;28;20389;-44
2022/12/03 08:29:19;;;;;;;;;;;;;;;19.32;43.71;101695.88;5125668;28;20359;-44
2022/12/03 08:31:46;;;;;;;;;;;;;;;19.32;43.70;101695.88;5116902;28;19942;-43
2022/12/03 08:36:50;;;;;;;;;;;;;;;19.31;44.06;101692.28;5166724;27;19925;-41
2022/12/03 08:39:32;;;;;;;;;;;;;;;19.32;43.98;101698.63;5166134;27;20378;-43
2022/12/03 08:44:46;;;;;;;;;;;;;;;19.31;43.79;101695.03;5132846;27;20446;-42
2022/12/03 08:47:13;;;;;;;;;;;;;;;19.33;43.87;101705.81;5162257;27;21010;-42
2022/12/03 08:49:39;;;;;;;;;;;;;;;19.32;43.68;101705.00;5160435;27;20369;-41
2022/12/03 08:52:10;;;;;;;;;;;;;;;19.32;44.01;101701.41;5146849;27;20374;-42
2022/12/03 08:54:35;;;;;;;;;;;;;;;19.30;43.97;101702.50;5142401;27;19970;-43
2022/12/03 08:57:05;;;;;;;;;;;;;;;19.32;43.88;101707.75;5166158;27;20850;-42
2022/12/03 08:59:31;;;;;;;;;;;;;;;19.31;43.86;101703.34;5139189;27;19961;-41
2022/12/03 09:01:57;;;;;;;;;;;;;;;19.30;44.01;101696.97;5159901;27;19926;-42
2022/12/03 09:04:25;;;;;;;;;;;;;;;19.32;44.15;101695.88;5161012;27;19938;-41
2022/12/03 09:06:50;;;;;;;;;;;;;;;19.31;44.08;101697.81;5154070;27;20363;-41
2022/12/03 09:09:16;;;;;;;;;;;;;;;19.32;43.97;101701.41;5146839;27;19923;-40
2022/12/03 09:11:42;;;;;;;;;;;;;;;19.30;44.04;101701.69;5149301;27;19923;-42
2022/12/03 09:14:07;;;;;;;;;;;;;;;19.31;43.87;101700.56;5130401;27;19923;-42
2022/12/03 09:16:33;;;;;;;;;;;;;;;19.30;43.84;101699.75;5133160;27;19934;-42
2022/12/03 09:18:59;;;;;;;;;;;;;;;19.30;43.87;101699.75;5153270;27;19938;-41
2022/12/03 09:21:24;;;;;;;;;;;;;;;19.31;43.77;101703.34;5157343;27;20325;-43
2022/12/03 09:23:50;;;;;;;;;;;;;;;19.31;43.76;101706.09;5148009;27;19954;-41
2022/12/03 09:26:15;;;;;;;;;;;;;;;19.30;44.04;101702.50;5150322;27;19924;-40
2022/12/03 09:28:41;;;;;;;;;;;;;;;19.31;43.85;101697.81;5147024;27;20329;-42
2022/12/03 09:31:06;;;;;;;;;;;;;;;19.30;43.82;101694.22;5153912;27;19923;-43
2022/12/03 09:33:32;;;;;;;;;;;;;;;19.30;43.77;101696.97;5152765;27;19976;-42
2022/12/03 09:35:58;;;;;;;;;;;;;;;19.31;43.98;101708.84;5150110;27;19924;-44
2022/12/03 09:38:24;;;;;;;;;;;;;;;19.30;43.79;101705.25;5147674;27;19962;-40
2022/12/03 09:40:49;;;;;;;;;;;;;;;19.30;43.77;101696.97;5130441;27;19924;-41
2022/12/03 09:43:15;;;;;;;;;;;;;;;19.30;43.86;101702.50;5150487;27;19930;-42
2022/12/03 09:45:40;;;;;;;;;;;;;;;19.31;43.76;101700.56;5134676;27;19927;-41
2022/12/03 09:48:06;;;;;;;;;;;;;;;19.29;43.93;101695.28;5135900;27;19931;-42
2022/12/03 09:50:31;;;;;;;;;;;;;;;19.30;43.91;101704.44;5133327;27;19927;-41
2022/12/03 09:52:57;;;;;;;;;;;;;;;19.29;43.74;101689.75;5135369;27;20375;-42
2022/12/03 09:55:24;;;;;;;;;;;;;;;19.30;44.13;101685.09;5140218;27;19927;-41
2022/12/03 09:57:51;;;;;;;;;;;;;;;19.30;43.69;101682.34;5121461;27;19965;-44
2022/12/03 10:00:18;;;;;;;;;;;;;;;19.30;43.55;101679.56;5143096;27;20359;-42
2022/12/03 10:02:44;;;;;;;;;;;;;;;19.30;43.95;101682.34;5114517;27;20483;-41
2022/12/03 10:05:09;;;;;;;;;;;;;;;19.30;43.71;101687.88;5116613;28;19990;-41
2022/12/03 10:07:35;;;;;;;;;;;;;;;19.30;43.99;101674.06;5137870;27;20283;-44
2022/12/03 10:10:01;;;;;;;;;;;;;;;19.29;43.78;101675.97;5133667;27;19966;-43
2022/12/03 10:12:26;;;;;;;;;;;;;;;19.29;43.92;101677.88;5133540;27;19923;-42
2022/12/03 10:14:52;;;;;;;;;;;;;;;19.29;43.71;101673.19;5134735;27;20205;-42
2022/12/03 10:17:18;;;;;;;;;;;;;;;19.29;43.74;101666.84;5140797;27;20378;-41
2022/12/03 10:19:43;;;;;;;;;;;;;;;19.29;43.70;101664.09;5139093;27;19934;-41
2022/12/03 10:22:09;;;;;;;;;;;;;;;19.28;43.57;101665.19;5137431;27;20275;-42
2022/12/03 10:24:35;;;;;;;;;;;;;;;19.29;43.97;101656.63;5131878;27;19929;-42
2022/12/03 10:27:03;;;;;;;;;;;;;;;19.29;43.82;101656.63;5126120;27;19931;-44
2022/12/03 10:29:29;;;;;;;;;;;;;;;19.29;44.00;101661.31;5119447;27;19962;-43
2022/12/03 10:32:01;;;;;;;;;;;;;;;19.29;44.04;101655.78;5118487;27;19981;-41
2022/12/03 10:34:30;;;;;;;;;;;;;;;19.29;43.86;101648.34;5124317;27;19958;-42
2022/12/03 10:37:15;;;;;;;;;;;;;;;19.29;43.83;101642.00;5120534;27;19970;-45
2022/12/03 10:40:01;;;;;;;;;;;;;;;19.29;43.96;101637.28;5118219;27;19927;-40
2022/12/03 10:42:27;;;;;;;;;;;;;;;19.29;43.99;101636.47;5123286;27;19963;-41
2022/12/03 10:45:11;;;;;;;;;;;;;;;19.29;43.77;101625.41;5116762;27;20349;-41
2022/12/03 10:47:37;;;;;;;;;;;;;;;19.29;43.82;101629.00;5135650;27;19942;-43
2022/12/03 10:50:04;;;;;;;;;;;;;;;19.28;43.75;101627.34;5136607;27;19924;-41
2022/12/03 10:52:30;;;;;;;;;;;;;;;19.28;43.79;101609.94;5133926;27;19960;-44
2022/12/03 10:54:55;;;;;;;;;;;;;;;19.28;43.99;101619.06;5136469;27;19924;-41
2022/12/03 10:57:21;;;;;;;;;;;;;;;19.29;43.79;101614.38;5138760;27;19923;-40
2022/12/03 10:59:47;;;;;;;;;;;;;;;19.28;43.82;101608.03;5142263;27;20432;-40
2022/12/03 11:02:20;;;;;;;;;;;;;;;19.28;43.87;101607.19;5137252;27;19930;-41
2022/12/03 11:04:46;;;;;;;;;;;;;;;19.28;44.12;101610.78;5133952;27;19981;-43
2022/12/03 11:07:13;;;;;;;;;;;;;;;19.28;43.82;101604.44;5110240;28;19924;-43
2022/12/03 11:09:38;;;;;;;;;;;;;;;19.29;44.00;101598.63;5122841;27;19970;-43
2022/12/03 11:12:05;;;;;;;;;;;;;;;19.29;43.82;101595.03;5136587;27;19929;-41
2022/12/03 11:14:51;;;;;;;;;;;;;;;19.28;43.80;101594.22;5137564;27;19955;-40
2022/12/03 11:17:37;;;;;;;;;;;;;;;19.28;43.78;101590.63;5118954;27;19929;-41
2022/12/03 11:20:03;;;;;;;;;;;;;;;19.29;43.78;101595.88;5117224;27;19927;-41
2022/12/03 11:22:38;;;;;;;;;;;;;;;19.27;43.95;101592.56;5138771;27;19989;-42
2022/12/03 11:25:23;;;;;;;;;;;;;;;19.28;43.94;101599.72;5117637;27;20215;-43
2022/12/03 11:28:09;;;;;;;;;;;;;;;19.28;44.01;101601.66;5117248;27;20039;-42
2022/12/03 11:30:52;;;;;;;;;;;;;;;19.28;44.07;101590.63;5125325;27;19978;-44
2022/12/03 11:33:20;;;;;;;;;;;;;;;19.28;43.70;101587.84;5137517;27;20060;-43
2022/12/03 11:36:06;;;;;;;;;;;;;;;19.28;43.89;101583.16;5118832;27;20011;-41
2022/12/03 11:38:47;;;;;;;;;;;;;;;19.27;44.01;101578.75;5120106;27;19962;-42
2022/12/03 11:41:23;;;;;;;;;;;;;;;19.27;44.17;101573.22;5120003;27;20076;-41
2022/12/03 11:46:27;;;;;;;;;;;;;;;19.28;43.71;101566.59;5185600;27;19925;-42
2022/12/03 11:48:53;;;;;;;;;;;;;;;19.27;43.79;101564.94;5171920;27;19975;-43
2022/12/03 11:51:19;;;;;;;;;;;;;;;19.26;43.81;101560.53;5171396;27;19955;-42
2022/12/03 11:53:45;;;;;;;;;;;;;;;19.28;44.00;101560.25;5168442;27;19950;-43
2022/12/03 11:56:15;;;;;;;;;;;;;;;19.28;43.91;101557.47;5176198;27;19930;-41
2022/12/03 11:58:41;;;;;;;;;;;;;;;19.28;43.75;101557.47;5153524;27;19970;-42
2022/12/03 12:01:07;;;;;;;;;;;;;;;19.27;43.77;101559.41;5171252;27;19985;-42
2022/12/03 12:03:33;;;;;;;;;;;;;;;19.28;43.99;101543.69;5143100;27;19931;-41
2022/12/03 12:06:01;;;;;;;;;;;;;;;19.27;43.82;101544.78;5135907;27;20409;-42
2022/12/03 12:08:26;;;;;;;;;;;;;;;19.28;43.83;101538.16;5158326;27;20367;-42
2022/12/03 12:10:52;;;;;;;;;;;;;;;19.26;43.74;101535.66;5159490;27;19926;-41
2022/12/03 12:13:27;;;;;;;;;;;;;;;19.27;43.81;101537.31;5158443;27;19931;-42
2022/12/03 12:15:53;;;;;;;;;;;;;;;19.27;43.91;101536.50;5160250;27;20021;-40
2022/12/03 12:18:39;;;;;;;;;;;;;;;19.27;43.80;101536.50;5135638;27;19931;-42
2022/12/03 12:21:24;;;;;;;;;;;;;;;19.27;44.08;101531.81;5140025;27;19970;-43
2022/12/03 12:23:50;;;;;;;;;;;;;;;19.27;43.87;101523.50;5137670;27;20394;-43
2022/12/03 12:26:15;;;;;;;;;;;;;;;19.27;44.13;101518.00;5153292;27;19930;-41
2022/12/03 12:28:41;;;;;;;;;;;;;;;19.27;43.61;101518.00;5159536;27;19923;-42
2022/12/03 12:31:10;;;;;;;;;;;;;;;19.27;43.82;101519.94;5151841;27;19923;-43
2022/12/03 12:33:36;;;;;;;;;;;;;;;19.27;43.88;101522.69;5134380;27;19971;-40
2022/12/03 12:36:07;;;;;;;;;;;;;;;19.27;43.82;101514.41;5156300;27;19927;-42
2022/12/03 12:38:32;;;;;;;;;;;;;;;19.27;43.95;101515.22;5139394;27;20003;-43
2022/12/03 12:40:58;;;;;;;;;;;;;;;19.27;43.92;101509.72;5163965;27;19923;-43
2022/12/03 12:43:24;;;;;;;;;;;;;;;19.26;43.72;101510.81;5154986;27;20375;-42
2022/12/03 12:45:52;;;;;;;;;;;;;;;19.26;43.81;101497.00;5136418;27;21424;-41
2022/12/03 12:48:20;;;;;;;;;;;;;;;19.26;43.88;101505.28;5140087;27;19928;-41
2022/12/03 12:50:46;;;;;;;;;;;;;;;19.26;43.71;101497.00;5138714;27;20354;-43
2022/12/03 12:53:32;;;;;;;;;;;;;;;19.27;43.82;101500.59;5141144;27;19969;-41
2022/12/03 12:56:01;;;;;;;;;;;;;;;19.26;44.11;101505.28;5146195;27;19995;-42
2022/12/03 12:58:29;;;;;;;;;;;;;;;19.26;43.83;101496.19;5126497;27;20413;-40
2022/12/03 13:00:56;;;;;;;;;;;;;;;19.27;43.82;101504.19;5122013;27;19958;-42